Terminal Aerodrome Forecast
Issued by NWS Sioux Falls, SD

Home | Current Version | Previous Version | Text Only | Print | Product List | Glossary Off
Versions: 1 2 3 4 5 6 7 8 9 10 11 12 13 14 15 16 17 18

000
FTUS43 KFSD 210741 AAA
TAFSUX
TAF AMD
KSUX 210741Z 2108/2206 12006KT 6SM BR BKN015 OVC035
      TEMPO 2108/2109 5SM -TSRA OVC040CB
     FM211400 15006KT P6SM SCT025 SCT080 BKN200
     FM211900 19009KT P6SM VCTS BKN080CB
     FM212200 36007KT P6SM SHRA VCTS BKN060CB
     FM220300 35005KT P6SM BKN060=

USA.gov is the U.S. government's official web portal to all federal, state and local government web resources and services.